Nearby METAR Reports

 

K6B9 - Skaneateles, New York, USA
Distance from station: SE 7mi, 12km
Updated: Sat, 13-Jul-2024 8:15am EDT
Clear
Clear
 Wind from varies
Wind: varies 5 mph, 7 km/h
Temperature: 73°F, 23°C
Dew Point: 68°F, 20°C
Humidity: 83%
Barometer: 30.19 inHg, 1022.4 hPa
Clouds: Clear
Visibility: 10 miles, 16 km
2024/07/13 12:15 K6B9 131215Z AUTO VRB04KT 10SM CLR 23/20 A3019 RMK AO2
KSYR - Syracuse, New York, USA
Distance from station: ENE 24mi, 38km
Updated: Sat, 13-Jul-2024 7:54am EDT
Partly cloudy
Partly cloudy
 Wind from WSW
Wind: WSW 8 mph, 13 km/h
Temperature: 77°F, 25°C
Dew Point: 68°F, 20°C
Humidity: 74%
Barometer: 30.17 inHg, 1021.7 hPa
Clouds: Partly cloudy
Visibility: 10 miles, 16 km
Cloud details: Few Clouds 1600 ft
Few Clouds 6000 ft
Partly cloudy 18000 ft
2024/07/13 11:54 KSYR 131154Z 25007KT 10SM FEW016 FEW060 SCT180 25/20 A3017 RMK AO2 SLP210 T02500200 10250 20217 53010
 
KFZY - Fulton, New York, USA
Distance from station: NNE 26mi, 41km
Updated: Sat, 13-Jul-2024 8:04am EDT
Overcast
Overcast
 Wind from W
Wind: W 3 mph, 6 km/h
Temperature: 72°F, 22°C
Dew Point: 70°F, 21°C
Humidity: 94%
Barometer: 30.17 inHg, 1021.7 hPa
Clouds: Overcast
Visibility: 7 miles, 11 km
Cloud details: Overcast 400 ft
2024/07/13 12:04 KFZY 131204Z AUTO 26003KT 7SM OVC004 22/21 A3017 RMK AO2 T02220211
KN03 - Cortland, New York, USA
Distance from station: SSE 32mi, 51km
Updated: Sat, 13-Jul-2024 8:15am EDT
Clear
Clear
 Wind from calm
Wind: Calm
Temperature: 70°F, 21°C
Dew Point: 64°F, 18°C
Humidity: 83%
Barometer: 30.21 inHg, 1023 hPa
Clouds: Clear
Visibility: 10 miles, 16 km
2024/07/13 12:15 KN03 131215Z AUTO 00000KT 10SM CLR 21/18 A3021 RMK AO2
 
KSDC - Williamson/Sodus, New York, USA
Distance from station: WNW 34mi, 54km
Updated: Sat, 13-Jul-2024 8:15am EDT
Clear
Clear
 Wind from WSW
Wind: WSW 3 mph, 6 km/h
Temperature: 72°F, 22°C
Dew Point: 70°F, 21°C
Humidity: 94%
Barometer: 30.18 inHg, 1022 hPa
Clouds: Clear
Visibility: 10 miles, 16 km
2024/07/13 12:15 KSDC 131215Z AUTO 24003KT 10SM CLR 22/21 A3018 RMK AO2
KPEO - Penn Yan, New York, USA
Distance from station: SW 35mi, 57km
Updated: Sat, 13-Jul-2024 7:53am EDT
Clear
Clear
 Wind from SW
Wind: SW 6 mph, 9 km/h
Temperature: 72°F, 22°C
Dew Point: 66°F, 19°C
Humidity: 83%
Barometer: 30.20 inHg, 1022.7 hPa
Clouds: Clear
Visibility: 10 miles, 16 km
2024/07/13 11:53 KPEO 131153Z AUTO 22005KT 10SM CLR 22/19 A3020 RMK AO2 SLP218 T02220194 10222 20206 53010
 
KITH - Ithaca/Tompkins, New York, USA
Distance from station: S 37mi, 59km
Updated: Sat, 13-Jul-2024 7:56am EDT
Clear
Clear
 Wind from S
Wind: S 3 mph, 6 km/h
Temperature: 73°F, 23°C
Dew Point: 66°F, 19°C
Humidity: 78%
Barometer: 30.21 inHg, 1023 hPa
Clouds: Clear
Visibility: 10 miles, 16 km
2024/07/13 11:56 KITH 131156Z 18003KT 10SM CLR 23/19 A3021 RMK AO2 SLP219 7//// T02280189 10228 20172 51006
KVGC - Hamilton Municip, New York, USA
Distance from station: E 50mi, 80km
Updated: Sat, 13-Jul-2024 8:15am EDT
Clear
Clear
 Wind from calm
Wind: Calm
Temperature: 72°F, 22°C
Dew Point: 64°F, 18°C
Humidity: 78%
Barometer: 30.20 inHg, 1022.7 hPa
Clouds: Clear
Visibility: 10 miles, 16 km
2024/07/13 12:15 KVGC 131215Z AUTO 00000KT 10SM CLR 22/18 A3020 RMK AO2